PILOTS ONLINE: 336    ATC ONLINE: 58

NFFN

Nadi International Airport

Location

IATA NAN
City Nadi
Country  Fiji
Latitude 17° 45' 19" S
Longitude 177° 26' 34" E
Elevation 59 ft
Type Medium Airport

Map

Weather

METAR
2014/10/23 22:00
NFFN 232200Z 29010KT 9999 FEW027 SCT140 29/24 Q1013 NOSIG
TAF
2014/10/23 18:47
TAF NFFN 231539Z 2318/2418 VRB03KT 9999 FEW028 SCT050 
      BECMG 2321/2323 30012KT PROB30 
      TEMPO 2404/2406 5000 SHRA BKN015 
      BECMG 2404/2406 13005KT

Runways

02/20 10739 ft / 150 ft
09/27 7007 ft / 150 ft

Outbound flights

Callsign Flying to Pilot ATD/STD ETA Aircraft

Inbound flights

Callsign Flying from Pilot ATD ETA Aircraft